sensor_id;sensor_type;location;lat;lon;timestamp;P1;durP1;ratioP1;P2;durP2;ratioP2
48845;SDS011;34665;51.886;5.436;2024-01-16T00:01:36;8.97;;;1.77;;
48845;SDS011;34665;51.886;5.436;2024-01-16T00:04:01;15.53;;;2.43;;
48845;SDS011;34665;51.886;5.436;2024-01-16T00:06:27;6.30;;;1.90;;
48845;SDS011;34665;51.886;5.436;2024-01-16T00:08:52;4.37;;;1.47;;
48845;SDS011;34665;51.886;5.436;2024-01-16T00:11:18;9.23;;;1.45;;
48845;SDS011;34665;51.886;5.436;2024-01-16T00:13:43;6.82;;;1.45;;
48845;SDS011;34665;51.886;5.436;2024-01-16T00:16:09;10.30;;;1.88;;
48845;SDS011;34665;51.886;5.436;2024-01-16T00:18:34;8.93;;;1.83;;
48845;SDS011;34665;51.886;5.436;2024-01-16T00:21:00;9.67;;;2.27;;
48845;SDS011;34665;51.886;5.436;2024-01-16T00:23:25;21.98;;;3.00;;
48845;SDS011;34665;51.886;5.436;2024-01-16T00:25:51;6.10;;;1.70;;
48845;SDS011;34665;51.886;5.436;2024-01-16T00:28:16;17.40;;;3.00;;
48845;SDS011;34665;51.886;5.436;2024-01-16T00:30:44;15.75;;;2.55;;
48845;SDS011;34665;51.886;5.436;2024-01-16T00:33:09;7.63;;;1.60;;
48845;SDS011;34665;51.886;5.436;2024-01-16T00:35:35;14.23;;;2.28;;
48845;SDS011;34665;51.886;5.436;2024-01-16T00:38:00;3.73;;;1.77;;
48845;SDS011;34665;51.886;5.436;2024-01-16T00:40:27;11.00;;;1.92;;
48845;SDS011;34665;51.886;5.436;2024-01-16T00:42:53;8.00;;;2.20;;
48845;SDS011;34665;51.886;5.436;2024-01-16T00:45:18;10.10;;;2.30;;
48845;SDS011;34665;51.886;5.436;2024-01-16T00:47:44;13.63;;;2.33;;
48845;SDS011;34665;51.886;5.436;2024-01-16T00:50:09;9.30;;;2.97;;
48845;SDS011;34665;51.886;5.436;2024-01-16T00:52:35;8.88;;;2.50;;
48845;SDS011;34665;51.886;5.436;2024-01-16T00:55:00;7.97;;;2.37;;
48845;SDS011;34665;51.886;5.436;2024-01-16T00:57:25;14.60;;;2.77;;
48845;SDS011;34665;51.886;5.436;2024-01-16T00:59:51;11.70;;;2.63;;
48845;SDS011;34665;51.886;5.436;2024-01-16T01:02:16;16.83;;;3.88;;
48845;SDS011;34665;51.886;5.436;2024-01-16T01:04:42;9.77;;;3.77;;
48845;SDS011;34665;51.886;5.436;2024-01-16T01:07:08;15.63;;;3.83;;
48845;SDS011;34665;51.886;5.436;2024-01-16T01:09:34;14.57;;;4.77;;
48845;SDS011;34665;51.886;5.436;2024-01-16T01:11:59;14.47;;;5.43;;
48845;SDS011;34665;51.886;5.436;2024-01-16T01:14:25;22.63;;;6.65;;
48845;SDS011;34665;51.886;5.436;2024-01-16T01:19:16;28.13;;;8.47;;
48845;SDS011;34665;51.886;5.436;2024-01-16T01:21:42;25.53;;;9.83;;
48845;SDS011;34665;51.886;5.436;2024-01-16T01:24:07;20.50;;;8.50;;
48845;SDS011;34665;51.886;5.436;2024-01-16T01:26:34;21.60;;;9.52;;
48845;SDS011;34665;51.886;5.436;2024-01-16T01:29:00;20.52;;;9.38;;
48845;SDS011;34665;51.886;5.436;2024-01-16T01:31:25;30.07;;;10.97;;
48845;SDS011;34665;51.886;5.436;2024-01-16T01:33:51;22.30;;;10.80;;
48845;SDS011;34665;51.886;5.436;2024-01-16T01:36:16;27.88;;;11.13;;
48845;SDS011;34665;51.886;5.436;2024-01-16T01:38:42;23.73;;;10.80;;
48845;SDS011;34665;51.886;5.436;2024-01-16T01:41:07;25.97;;;10.67;;
48845;SDS011;34665;51.886;5.436;2024-01-16T01:43:34;25.30;;;11.65;;
48845;SDS011;34665;51.886;5.436;2024-01-16T01:48:30;24.75;;;10.75;;
48845;SDS011;34665;51.886;5.436;2024-01-16T01:50:57;31.90;;;11.70;;
48845;SDS011;34665;51.886;5.436;2024-01-16T01:53:22;34.08;;;10.75;;
48845;SDS011;34665;51.886;5.436;2024-01-16T01:55:48;24.30;;;12.20;;
48845;SDS011;34665;51.886;5.436;2024-01-16T01:58:14;20.80;;;10.88;;
48845;SDS011;34665;51.886;5.436;2024-01-16T02:00:39;25.25;;;10.95;;
48845;SDS011;34665;51.886;5.436;2024-01-16T02:03:05;26.50;;;11.40;;
48845;SDS011;34665;51.886;5.436;2024-01-16T02:05:30;25.20;;;9.93;;
48845;SDS011;34665;51.886;5.436;2024-01-16T02:07:57;19.90;;;8.45;;
48845;SDS011;34665;51.886;5.436;2024-01-16T02:10:22;23.30;;;7.40;;
48845;SDS011;34665;51.886;5.436;2024-01-16T02:12:47;20.20;;;8.10;;
48845;SDS011;34665;51.886;5.436;2024-01-16T02:15:13;18.00;;;8.07;;
48845;SDS011;34665;51.886;5.436;2024-01-16T02:17:38;20.20;;;7.00;;
48845;SDS011;34665;51.886;5.436;2024-01-16T02:20:04;22.00;;;7.20;;
48845;SDS011;34665;51.886;5.436;2024-01-16T02:24:55;19.57;;;6.63;;
48845;SDS011;34665;51.886;5.436;2024-01-16T02:27:21;23.85;;;6.82;;
48845;SDS011;34665;51.886;5.436;2024-01-16T02:29:46;16.33;;;7.13;;
48845;SDS011;34665;51.886;5.436;2024-01-16T02:32:12;14.47;;;4.47;;
48845;SDS011;34665;51.886;5.436;2024-01-16T02:34:38;17.47;;;4.23;;
48845;SDS011;34665;51.886;5.436;2024-01-16T02:37:03;15.87;;;3.37;;
48845;SDS011;34665;51.886;5.436;2024-01-16T02:39:29;7.43;;;2.58;;
48845;SDS011;34665;51.886;5.436;2024-01-16T02:41:54;7.53;;;2.63;;
48845;SDS011;34665;51.886;5.436;2024-01-16T02:44:20;6.30;;;2.30;;
48845;SDS011;34665;51.886;5.436;2024-01-16T02:46:45;14.63;;;2.53;;
48845;SDS011;34665;51.886;5.436;2024-01-16T02:49:10;7.90;;;2.90;;
48845;SDS011;34665;51.886;5.436;2024-01-16T02:51:36;11.20;;;3.13;;
48845;SDS011;34665;51.886;5.436;2024-01-16T02:54:01;8.70;;;2.60;;
48845;SDS011;34665;51.886;5.436;2024-01-16T02:56:26;26.97;;;7.83;;
48845;SDS011;34665;51.886;5.436;2024-01-16T02:58:52;10.03;;;4.33;;
48845;SDS011;34665;51.886;5.436;2024-01-16T03:01:17;11.63;;;2.80;;
48845;SDS011;34665;51.886;5.436;2024-01-16T03:03:43;14.97;;;3.77;;
48845;SDS011;34665;51.886;5.436;2024-01-16T03:06:08;9.80;;;2.58;;
48845;SDS011;34665;51.886;5.436;2024-01-16T03:08:33;8.73;;;2.97;;
48845;SDS011;34665;51.886;5.436;2024-01-16T03:10:59;9.80;;;2.70;;
48845;SDS011;34665;51.886;5.436;2024-01-16T03:13:24;5.70;;;2.50;;
48845;SDS011;34665;51.886;5.436;2024-01-16T03:15:50;9.43;;;2.10;;
48845;SDS011;34665;51.886;5.436;2024-01-16T03:18:15;7.00;;;2.20;;
48845;SDS011;34665;51.886;5.436;2024-01-16T03:20:42;5.35;;;2.13;;
48845;SDS011;34665;51.886;5.436;2024-01-16T03:23:08;8.13;;;2.00;;
48845;SDS011;34665;51.886;5.436;2024-01-16T03:25:33;6.78;;;1.90;;
48845;SDS011;34665;51.886;5.436;2024-01-16T03:28:04;11.63;;;2.22;;
48845;SDS011;34665;51.886;5.436;2024-01-16T03:30:30;12.52;;;2.42;;
48845;SDS011;34665;51.886;5.436;2024-01-16T03:32:55;4.78;;;2.03;;
48845;SDS011;34665;51.886;5.436;2024-01-16T03:35:21;8.38;;;2.90;;
48845;SDS011;34665;51.886;5.436;2024-01-16T03:37:46;9.57;;;2.20;;
48845;SDS011;34665;51.886;5.436;2024-01-16T03:40:12;8.77;;;3.27;;
48845;SDS011;34665;51.886;5.436;2024-01-16T03:42:38;6.38;;;2.83;;
48845;SDS011;34665;51.886;5.436;2024-01-16T03:45:05;15.53;;;3.60;;
48845;SDS011;34665;51.886;5.436;2024-01-16T03:49:56;17.80;;;5.57;;
48845;SDS011;34665;51.886;5.436;2024-01-16T03:52:22;13.17;;;3.47;;
48845;SDS011;34665;51.886;5.436;2024-01-16T03:54:48;8.52;;;3.22;;
48845;SDS011;34665;51.886;5.436;2024-01-16T03:57:13;11.87;;;3.50;;
48845;SDS011;34665;51.886;5.436;2024-01-16T03:59:39;8.80;;;3.70;;
48845;SDS011;34665;51.886;5.436;2024-01-16T04:02:04;6.67;;;2.97;;
48845;SDS011;34665;51.886;5.436;2024-01-16T04:04:29;11.17;;;2.87;;
48845;SDS011;34665;51.886;5.436;2024-01-16T04:06:55;4.33;;;2.23;;
48845;SDS011;34665;51.886;5.436;2024-01-16T04:09:20;9.63;;;2.83;;
48845;SDS011;34665;51.886;5.436;2024-01-16T04:11:49;6.32;;;2.50;;
48845;SDS011;34665;51.886;5.436;2024-01-16T04:14:15;11.90;;;2.95;;
48845;SDS011;34665;51.886;5.436;2024-01-16T04:16:40;11.52;;;2.88;;
48845;SDS011;34665;51.886;5.436;2024-01-16T04:19:06;7.30;;;2.23;;
48845;SDS011;34665;51.886;5.436;2024-01-16T04:21:31;11.70;;;2.50;;
48845;SDS011;34665;51.886;5.436;2024-01-16T04:23:57;9.77;;;2.20;;
48845;SDS011;34665;51.886;5.436;2024-01-16T04:26:22;6.50;;;1.80;;
48845;SDS011;34665;51.886;5.436;2024-01-16T04:28:48;14.20;;;2.47;;
48845;SDS011;34665;51.886;5.436;2024-01-16T04:31:14;6.88;;;2.13;;
48845;SDS011;34665;51.886;5.436;2024-01-16T04:33:41;5.45;;;2.00;;
48845;SDS011;34665;51.886;5.436;2024-01-16T04:36:07;7.07;;;2.20;;
48845;SDS011;34665;51.886;5.436;2024-01-16T04:38:33;8.83;;;2.27;;
48845;SDS011;34665;51.886;5.436;2024-01-16T04:41:00;10.63;;;2.57;;
48845;SDS011;34665;51.886;5.436;2024-01-16T04:43:26;11.70;;;2.92;;
48845;SDS011;34665;51.886;5.436;2024-01-16T04:45:51;6.27;;;2.80;;
48845;SDS011;34665;51.886;5.436;2024-01-16T04:48:17;5.47;;;1.73;;
48845;SDS011;34665;51.886;5.436;2024-01-16T04:50:42;6.40;;;2.07;;
48845;SDS011;34665;51.886;5.436;2024-01-16T04:53:08;9.93;;;2.58;;
48845;SDS011;34665;51.886;5.436;2024-01-16T04:55:33;10.53;;;1.97;;
48845;SDS011;34665;51.886;5.436;2024-01-16T04:57:59;8.40;;;2.90;;
48845;SDS011;34665;51.886;5.436;2024-01-16T05:00:25;9.47;;;3.00;;
48845;SDS011;34665;51.886;5.436;2024-01-16T05:02:51;14.80;;;4.10;;
48845;SDS011;34665;51.886;5.436;2024-01-16T05:05:16;8.87;;;2.80;;
48845;SDS011;34665;51.886;5.436;2024-01-16T05:07:42;7.03;;;2.65;;
48845;SDS011;34665;51.886;5.436;2024-01-16T05:10:11;17.00;;;2.47;;
48845;SDS011;34665;51.886;5.436;2024-01-16T05:12:40;10.85;;;2.90;;
48845;SDS011;34665;51.886;5.436;2024-01-16T05:15:06;21.50;;;2.92;;
48845;SDS011;34665;51.886;5.436;2024-01-16T05:17:32;9.20;;;2.58;;
48845;SDS011;34665;51.886;5.436;2024-01-16T05:19:57;11.33;;;3.93;;
48845;SDS011;34665;51.886;5.436;2024-01-16T05:22:22;19.13;;;4.70;;
48845;SDS011;34665;51.886;5.436;2024-01-16T05:24:48;16.52;;;5.95;;
48845;SDS011;34665;51.886;5.436;2024-01-16T05:27:13;11.83;;;3.40;;
48845;SDS011;34665;51.886;5.436;2024-01-16T05:29:42;14.35;;;3.40;;
48845;SDS011;34665;51.886;5.436;2024-01-16T05:32:08;8.65;;;2.38;;
48845;SDS011;34665;51.886;5.436;2024-01-16T05:34:34;10.07;;;2.10;;
48845;SDS011;34665;51.886;5.436;2024-01-16T05:36:59;6.70;;;2.37;;
48845;SDS011;34665;51.886;5.436;2024-01-16T05:39:24;10.30;;;2.50;;
48845;SDS011;34665;51.886;5.436;2024-01-16T05:41:49;15.00;;;2.87;;
48845;SDS011;34665;51.886;5.436;2024-01-16T05:44:15;8.43;;;2.10;;
48845;SDS011;34665;51.886;5.436;2024-01-16T05:46:41;12.40;;;3.05;;
48845;SDS011;34665;51.886;5.436;2024-01-16T05:49:06;13.25;;;2.55;;
48845;SDS011;34665;51.886;5.436;2024-01-16T05:51:31;16.40;;;2.53;;
48845;SDS011;34665;51.886;5.436;2024-01-16T05:53:57;11.02;;;2.22;;
48845;SDS011;34665;51.886;5.436;2024-01-16T05:56:23;16.23;;;4.67;;
48845;SDS011;34665;51.886;5.436;2024-01-16T05:58:48;6.27;;;2.27;;
48845;SDS011;34665;51.886;5.436;2024-01-16T06:01:14;12.57;;;2.73;;
48845;SDS011;34665;51.886;5.436;2024-01-16T06:03:39;13.87;;;2.90;;
48845;SDS011;34665;51.886;5.436;2024-01-16T06:06:05;14.18;;;2.70;;
48845;SDS011;34665;51.886;5.436;2024-01-16T06:08:30;15.95;;;3.05;;
48845;SDS011;34665;51.886;5.436;2024-01-16T06:10:56;10.67;;;3.13;;
48845;SDS011;34665;51.886;5.436;2024-01-16T06:13:21;12.60;;;2.57;;
48845;SDS011;34665;51.886;5.436;2024-01-16T06:18:13;9.40;;;3.27;;
48845;SDS011;34665;51.886;5.436;2024-01-16T06:20:38;5.07;;;2.43;;
48845;SDS011;34665;51.886;5.436;2024-01-16T06:23:04;12.20;;;4.13;;
48845;SDS011;34665;51.886;5.436;2024-01-16T06:25:29;17.47;;;5.00;;
48845;SDS011;34665;51.886;5.436;2024-01-16T06:27:54;8.98;;;3.80;;
48845;SDS011;34665;51.886;5.436;2024-01-16T06:30:21;11.27;;;3.85;;
48845;SDS011;34665;51.886;5.436;2024-01-16T06:32:47;12.50;;;5.05;;
48845;SDS011;34665;51.886;5.436;2024-01-16T06:35:15;16.08;;;5.25;;
48845;SDS011;34665;51.886;5.436;2024-01-16T06:37:40;13.65;;;5.95;;
48845;SDS011;34665;51.886;5.436;2024-01-16T06:40:05;18.77;;;5.93;;
48845;SDS011;34665;51.886;5.436;2024-01-16T06:42:31;26.60;;;6.78;;
48845;SDS011;34665;51.886;5.436;2024-01-16T06:44:57;22.27;;;6.60;;
48845;SDS011;34665;51.886;5.436;2024-01-16T06:47:22;19.10;;;7.77;;
48845;SDS011;34665;51.886;5.436;2024-01-16T06:49:49;15.23;;;6.75;;
48845;SDS011;34665;51.886;5.436;2024-01-16T06:52:14;14.68;;;5.43;;
48845;SDS011;34665;51.886;5.436;2024-01-16T06:54:39;20.70;;;6.90;;
48845;SDS011;34665;51.886;5.436;2024-01-16T06:57:05;15.23;;;6.73;;
48845;SDS011;34665;51.886;5.436;2024-01-16T06:59:30;15.27;;;7.37;;
48845;SDS011;34665;51.886;5.436;2024-01-16T07:01:56;27.20;;;7.53;;
48845;SDS011;34665;51.886;5.436;2024-01-16T07:04:21;26.90;;;7.80;;
48845;SDS011;34665;51.886;5.436;2024-01-16T07:06:47;21.08;;;8.27;;
48845;SDS011;34665;51.886;5.436;2024-01-16T07:09:13;21.23;;;7.75;;
48845;SDS011;34665;51.886;5.436;2024-01-16T07:11:39;18.40;;;6.40;;
48845;SDS011;34665;51.886;5.436;2024-01-16T07:14:08;23.63;;;8.77;;
48845;SDS011;34665;51.886;5.436;2024-01-16T07:16:34;26.40;;;11.68;;
48845;SDS011;34665;51.886;5.436;2024-01-16T07:18:59;32.10;;;11.80;;
48845;SDS011;34665;51.886;5.436;2024-01-16T07:21:25;22.00;;;8.38;;
48845;SDS011;34665;51.886;5.436;2024-01-16T07:23:51;23.20;;;8.00;;
48845;SDS011;34665;51.886;5.436;2024-01-16T07:26:16;29.60;;;9.50;;
48845;SDS011;34665;51.886;5.436;2024-01-16T07:28:42;23.58;;;9.57;;
48845;SDS011;34665;51.886;5.436;2024-01-16T07:31:07;24.40;;;9.77;;
48845;SDS011;34665;51.886;5.436;2024-01-16T07:33:34;21.88;;;9.63;;
48845;SDS011;34665;51.886;5.436;2024-01-16T07:35:59;18.70;;;9.53;;
48845;SDS011;34665;51.886;5.436;2024-01-16T07:38:25;25.33;;;10.40;;
48845;SDS011;34665;51.886;5.436;2024-01-16T07:40:51;17.90;;;8.47;;
48845;SDS011;34665;51.886;5.436;2024-01-16T07:43:16;25.03;;;12.13;;
48845;SDS011;34665;51.886;5.436;2024-01-16T07:45:42;20.17;;;10.52;;
48845;SDS011;34665;51.886;5.436;2024-01-16T07:48:07;23.63;;;10.07;;
48845;SDS011;34665;51.886;5.436;2024-01-16T07:50:33;21.42;;;10.70;;
48845;SDS011;34665;51.886;5.436;2024-01-16T07:52:59;35.07;;;10.40;;
48845;SDS011;34665;51.886;5.436;2024-01-16T07:55:24;32.72;;;10.75;;
48845;SDS011;34665;51.886;5.436;2024-01-16T07:57:50;17.00;;;7.88;;
48845;SDS011;34665;51.886;5.436;2024-01-16T08:00:15;30.20;;;10.57;;
48845;SDS011;34665;51.886;5.436;2024-01-16T08:02:41;29.23;;;10.07;;
48845;SDS011;34665;51.886;5.436;2024-01-16T08:05:07;20.27;;;9.00;;
48845;SDS011;34665;51.886;5.436;2024-01-16T08:07:34;21.77;;;10.63;;
48845;SDS011;34665;51.886;5.436;2024-01-16T08:09:59;28.40;;;10.90;;
48845;SDS011;34665;51.886;5.436;2024-01-16T08:12:25;32.63;;;10.75;;
48845;SDS011;34665;51.886;5.436;2024-01-16T08:14:51;38.67;;;9.77;;
48845;SDS011;34665;51.886;5.436;2024-01-16T08:17:17;51.78;;;12.50;;
48845;SDS011;34665;51.886;5.436;2024-01-16T08:19:43;24.02;;;8.55;;
48845;SDS011;34665;51.886;5.436;2024-01-16T08:22:09;25.30;;;9.27;;
48845;SDS011;34665;51.886;5.436;2024-01-16T08:24:34;28.52;;;10.10;;
48845;SDS011;34665;51.886;5.436;2024-01-16T08:26:59;26.90;;;8.97;;
48845;SDS011;34665;51.886;5.436;2024-01-16T08:29:25;18.83;;;8.52;;
48845;SDS011;34665;51.886;5.436;2024-01-16T08:31:51;19.23;;;8.30;;
48845;SDS011;34665;51.886;5.436;2024-01-16T08:34:19;19.75;;;7.95;;
48845;SDS011;34665;51.886;5.436;2024-01-16T08:36:44;18.83;;;7.10;;
48845;SDS011;34665;51.886;5.436;2024-01-16T08:39:10;14.00;;;6.37;;
48845;SDS011;34665;51.886;5.436;2024-01-16T08:41:36;14.75;;;7.00;;
48845;SDS011;34665;51.886;5.436;2024-01-16T08:44:01;28.70;;;9.17;;
48845;SDS011;34665;51.886;5.436;2024-01-16T08:46:26;26.10;;;7.70;;
48845;SDS011;34665;51.886;5.436;2024-01-16T08:48:52;16.33;;;7.15;;
48845;SDS011;34665;51.886;5.436;2024-01-16T08:51:18;17.60;;;7.90;;
48845;SDS011;34665;51.886;5.436;2024-01-16T08:53:43;22.20;;;7.90;;
48845;SDS011;34665;51.886;5.436;2024-01-16T08:56:08;22.63;;;7.87;;
48845;SDS011;34665;51.886;5.436;2024-01-16T08:58:34;19.13;;;7.68;;
48845;SDS011;34665;51.886;5.436;2024-01-16T09:01:04;19.45;;;6.53;;
48845;SDS011;34665;51.886;5.436;2024-01-16T09:03:31;15.20;;;6.88;;
48845;SDS011;34665;51.886;5.436;2024-01-16T09:05:57;25.88;;;7.40;;
48845;SDS011;34665;51.886;5.436;2024-01-16T09:08:23;15.05;;;6.25;;
48845;SDS011;34665;51.886;5.436;2024-01-16T09:10:48;13.63;;;5.87;;
48845;SDS011;34665;51.886;5.436;2024-01-16T09:13:14;15.07;;;6.97;;
48845;SDS011;34665;51.886;5.436;2024-01-16T09:15:39;15.53;;;6.57;;
48845;SDS011;34665;51.886;5.436;2024-01-16T09:18:04;18.60;;;6.60;;
48845;SDS011;34665;51.886;5.436;2024-01-16T09:20:30;18.00;;;5.88;;
48845;SDS011;34665;51.886;5.436;2024-01-16T09:22:56;24.07;;;6.13;;
48845;SDS011;34665;51.886;5.436;2024-01-16T09:25:21;14.47;;;4.67;;
48845;SDS011;34665;51.886;5.436;2024-01-16T09:27:49;19.83;;;6.25;;
48845;SDS011;34665;51.886;5.436;2024-01-16T09:30:14;11.93;;;4.30;;
48845;SDS011;34665;51.886;5.436;2024-01-16T09:32:40;14.77;;;5.70;;
48845;SDS011;34665;51.886;5.436;2024-01-16T09:35:05;12.03;;;6.40;;
48845;SDS011;34665;51.886;5.436;2024-01-16T09:37:33;12.32;;;5.07;;
48845;SDS011;34665;51.886;5.436;2024-01-16T09:39:58;15.13;;;5.53;;
48845;SDS011;34665;51.886;5.436;2024-01-16T09:42:24;18.63;;;6.25;;
48845;SDS011;34665;51.886;5.436;2024-01-16T09:44:50;15.77;;;5.38;;
48845;SDS011;34665;51.886;5.436;2024-01-16T09:47:18;13.45;;;4.93;;
48845;SDS011;34665;51.886;5.436;2024-01-16T09:49:44;13.93;;;4.43;;
48845;SDS011;34665;51.886;5.436;2024-01-16T09:52:11;9.73;;;4.43;;
48845;SDS011;34665;51.886;5.436;2024-01-16T09:54:37;15.40;;;6.07;;
48845;SDS011;34665;51.886;5.436;2024-01-16T09:57:02;10.25;;;3.92;;
48845;SDS011;34665;51.886;5.436;2024-01-16T09:59:30;9.25;;;4.03;;
48845;SDS011;34665;51.886;5.436;2024-01-16T10:01:57;9.65;;;4.70;;
48845;SDS011;34665;51.886;5.436;2024-01-16T10:04:23;14.98;;;4.35;;
48845;SDS011;34665;51.886;5.436;2024-01-16T10:06:48;11.40;;;3.97;;
48845;SDS011;34665;51.886;5.436;2024-01-16T10:11:41;10.20;;;3.53;;
48845;SDS011;34665;51.886;5.436;2024-01-16T10:14:07;15.60;;;5.90;;
48845;SDS011;34665;51.886;5.436;2024-01-16T10:19:18;12.77;;;4.20;;
48845;SDS011;34665;51.886;5.436;2024-01-16T10:21:44;13.80;;;4.20;;
48845;SDS011;34665;51.886;5.436;2024-01-16T10:24:12;8.90;;;3.20;;
48845;SDS011;34665;51.886;5.436;2024-01-16T10:26:41;7.88;;;3.50;;
48845;SDS011;34665;51.886;5.436;2024-01-16T10:29:06;11.00;;;3.30;;
48845;SDS011;34665;51.886;5.436;2024-01-16T10:31:32;10.05;;;3.78;;
48845;SDS011;34665;51.886;5.436;2024-01-16T10:33:57;7.83;;;3.27;;
48845;SDS011;34665;51.886;5.436;2024-01-16T10:36:23;10.47;;;3.37;;
48845;SDS011;34665;51.886;5.436;2024-01-16T10:38:49;11.75;;;3.25;;
48845;SDS011;34665;51.886;5.436;2024-01-16T10:41:23;6.40;;;3.00;;
48845;SDS011;34665;51.886;5.436;2024-01-16T10:43:55;8.20;;;2.80;;
48845;SDS011;34665;51.886;5.436;2024-01-16T10:46:20;8.40;;;3.53;;
48845;SDS011;34665;51.886;5.436;2024-01-16T10:49:01;7.20;;;3.00;;
48845;SDS011;34665;51.886;5.436;2024-01-16T10:51:27;8.47;;;3.20;;
48845;SDS011;34665;51.886;5.436;2024-01-16T10:54:02;7.53;;;3.60;;
48845;SDS011;34665;51.886;5.436;2024-01-16T10:56:31;10.93;;;3.20;;
48845;SDS011;34665;51.886;5.436;2024-01-16T11:01:26;9.90;;;3.13;;
48845;SDS011;34665;51.886;5.436;2024-01-16T11:03:51;10.80;;;3.53;;
48845;SDS011;34665;51.886;5.436;2024-01-16T11:06:19;11.13;;;3.63;;
48845;SDS011;34665;51.886;5.436;2024-01-16T11:08:48;20.20;;;3.37;;
48845;SDS011;34665;51.886;5.436;2024-01-16T11:11:14;7.10;;;2.90;;
48845;SDS011;34665;51.886;5.436;2024-01-16T11:13:39;7.82;;;2.95;;
48845;SDS011;34665;51.886;5.436;2024-01-16T11:16:06;11.43;;;3.07;;
48845;SDS011;34665;51.886;5.436;2024-01-16T11:18:34;12.80;;;3.00;;
48845;SDS011;34665;51.886;5.436;2024-01-16T11:21:13;11.10;;;4.57;;
48845;SDS011;34665;51.886;5.436;2024-01-16T11:23:39;11.30;;;3.95;;
48845;SDS011;34665;51.886;5.436;2024-01-16T11:28:49;9.10;;;2.93;;
48845;SDS011;34665;51.886;5.436;2024-01-16T11:31:31;8.82;;;3.85;;
48845;SDS011;34665;51.886;5.436;2024-01-16T11:33:57;8.27;;;3.33;;
48845;SDS011;34665;51.886;5.436;2024-01-16T11:39:24;8.25;;;3.33;;
48845;SDS011;34665;51.886;5.436;2024-01-16T11:41:56;10.60;;;3.50;;
48845;SDS011;34665;51.886;5.436;2024-01-16T11:47:08;8.20;;;3.30;;
48845;SDS011;34665;51.886;5.436;2024-01-16T11:49:37;6.65;;;3.35;;
48845;SDS011;34665;51.886;5.436;2024-01-16T11:52:02;10.13;;;3.73;;
48845;SDS011;34665;51.886;5.436;2024-01-16T11:54:28;8.10;;;3.95;;
48845;SDS011;34665;51.886;5.436;2024-01-16T12:02:23;8.33;;;3.80;;
48845;SDS011;34665;51.886;5.436;2024-01-16T12:04:52;8.67;;;3.03;;
48845;SDS011;34665;51.886;5.436;2024-01-16T12:07:20;10.13;;;3.70;;
48845;SDS011;34665;51.886;5.436;2024-01-16T12:09:45;12.93;;;3.30;;
48845;SDS011;34665;51.886;5.436;2024-01-16T12:12:10;5.87;;;2.93;;
48845;SDS011;34665;51.886;5.436;2024-01-16T12:14:37;7.60;;;3.57;;
48845;SDS011;34665;51.886;5.436;2024-01-16T12:17:12;8.15;;;3.40;;
48845;SDS011;34665;51.886;5.436;2024-01-16T12:19:39;6.50;;;3.20;;
48845;SDS011;34665;51.886;5.436;2024-01-16T12:22:10;6.53;;;3.37;;
48845;SDS011;34665;51.886;5.436;2024-01-16T12:24:36;11.83;;;3.30;;
48845;SDS011;34665;51.886;5.436;2024-01-16T12:27:02;8.90;;;3.45;;
48845;SDS011;34665;51.886;5.436;2024-01-16T12:29:27;9.02;;;3.20;;
48845;SDS011;34665;51.886;5.436;2024-01-16T12:32:10;12.90;;;2.97;;
48845;SDS011;34665;51.886;5.436;2024-01-16T12:34:46;5.93;;;2.50;;
48845;SDS011;34665;51.886;5.436;2024-01-16T12:37:12;7.63;;;3.13;;
48845;SDS011;34665;51.886;5.436;2024-01-16T12:39:38;7.60;;;2.50;;
48845;SDS011;34665;51.886;5.436;2024-01-16T12:42:04;9.00;;;2.90;;
48845;SDS011;34665;51.886;5.436;2024-01-16T12:44:30;10.88;;;3.38;;
48845;SDS011;34665;51.886;5.436;2024-01-16T12:46:56;5.40;;;2.38;;
48845;SDS011;34665;51.886;5.436;2024-01-16T12:49:22;9.25;;;2.95;;
48845;SDS011;34665;51.886;5.436;2024-01-16T12:51:48;7.47;;;2.33;;
48845;SDS011;34665;51.886;5.436;2024-01-16T12:54:15;5.83;;;2.73;;
48845;SDS011;34665;51.886;5.436;2024-01-16T12:56:42;8.40;;;2.63;;
48845;SDS011;34665;51.886;5.436;2024-01-16T12:59:10;7.33;;;3.27;;
48845;SDS011;34665;51.886;5.436;2024-01-16T13:01:39;8.17;;;3.03;;
48845;SDS011;34665;51.886;5.436;2024-01-16T13:04:05;8.90;;;3.00;;
48845;SDS011;34665;51.886;5.436;2024-01-16T13:06:30;5.80;;;2.27;;
48845;SDS011;34665;51.886;5.436;2024-01-16T13:09:03;14.33;;;3.30;;
48845;SDS011;34665;51.886;5.436;2024-01-16T13:11:31;5.20;;;2.67;;
48845;SDS011;34665;51.886;5.436;2024-01-16T13:14:03;10.83;;;3.57;;
48845;SDS011;34665;51.886;5.436;2024-01-16T13:16:29;7.53;;;2.93;;
48845;SDS011;34665;51.886;5.436;2024-01-16T13:19:00;9.80;;;2.70;;
48845;SDS011;34665;51.886;5.436;2024-01-16T13:21:27;13.10;;;3.10;;
48845;SDS011;34665;51.886;5.436;2024-01-16T13:23:52;6.10;;;2.30;;
48845;SDS011;34665;51.886;5.436;2024-01-16T13:26:18;9.43;;;2.53;;
48845;SDS011;34665;51.886;5.436;2024-01-16T13:28:43;9.45;;;4.45;;
48845;SDS011;34665;51.886;5.436;2024-01-16T13:31:09;6.78;;;2.60;;
48845;SDS011;34665;51.886;5.436;2024-01-16T13:33:34;10.57;;;2.63;;
48845;SDS011;34665;51.886;5.436;2024-01-16T13:36:00;5.83;;;2.70;;
48845;SDS011;34665;51.886;5.436;2024-01-16T13:38:25;7.57;;;2.55;;
48845;SDS011;34665;51.886;5.436;2024-01-16T13:40:51;7.83;;;3.50;;
48845;SDS011;34665;51.886;5.436;2024-01-16T13:43:16;11.35;;;3.03;;
48845;SDS011;34665;51.886;5.436;2024-01-16T13:45:43;9.00;;;3.05;;
48845;SDS011;34665;51.886;5.436;2024-01-16T13:48:08;10.18;;;2.97;;
48845;SDS011;34665;51.886;5.436;2024-01-16T13:50:34;6.63;;;2.30;;
48845;SDS011;34665;51.886;5.436;2024-01-16T13:53:00;10.82;;;3.47;;
48845;SDS011;34665;51.886;5.436;2024-01-16T13:55:25;7.25;;;2.35;;
48845;SDS011;34665;51.886;5.436;2024-01-16T13:57:51;10.57;;;2.92;;
48845;SDS011;34665;51.886;5.436;2024-01-16T14:00:16;17.45;;;3.72;;
48845;SDS011;34665;51.886;5.436;2024-01-16T14:02:43;11.43;;;2.95;;
48845;SDS011;34665;51.886;5.436;2024-01-16T14:05:09;11.45;;;3.28;;
48845;SDS011;34665;51.886;5.436;2024-01-16T14:07:50;10.53;;;3.27;;
48845;SDS011;34665;51.886;5.436;2024-01-16T14:10:16;9.33;;;2.57;;
48845;SDS011;34665;51.886;5.436;2024-01-16T14:12:43;7.68;;;2.67;;
48845;SDS011;34665;51.886;5.436;2024-01-16T14:15:09;9.43;;;3.37;;
48845;SDS011;34665;51.886;5.436;2024-01-16T14:17:42;11.37;;;3.33;;
48845;SDS011;34665;51.886;5.436;2024-01-16T14:20:09;6.82;;;2.38;;
48845;SDS011;34665;51.886;5.436;2024-01-16T14:22:36;11.70;;;2.83;;
48845;SDS011;34665;51.886;5.436;2024-01-16T14:27:30;6.82;;;2.25;;
48845;SDS011;34665;51.886;5.436;2024-01-16T14:29:55;8.43;;;2.70;;
48845;SDS011;34665;51.886;5.436;2024-01-16T14:32:21;6.60;;;2.55;;
48845;SDS011;34665;51.886;5.436;2024-01-16T14:34:47;8.27;;;2.58;;
48845;SDS011;34665;51.886;5.436;2024-01-16T14:37:12;12.40;;;3.10;;
48845;SDS011;34665;51.886;5.436;2024-01-16T14:39:39;8.10;;;3.20;;
48845;SDS011;34665;51.886;5.436;2024-01-16T14:42:04;11.30;;;3.10;;
48845;SDS011;34665;51.886;5.436;2024-01-16T14:44:30;10.05;;;3.15;;
48845;SDS011;34665;51.886;5.436;2024-01-16T14:46:55;9.70;;;3.03;;
48845;SDS011;34665;51.886;5.436;2024-01-16T14:49:21;13.90;;;3.88;;
48845;SDS011;34665;51.886;5.436;2024-01-16T14:51:47;6.57;;;3.03;;
48845;SDS011;34665;51.886;5.436;2024-01-16T14:54:12;13.27;;;4.10;;
48845;SDS011;34665;51.886;5.436;2024-01-16T14:56:39;8.63;;;3.20;;
48845;SDS011;34665;51.886;5.436;2024-01-16T14:59:04;6.35;;;2.90;;
48845;SDS011;34665;51.886;5.436;2024-01-16T15:01:29;12.47;;;4.37;;
48845;SDS011;34665;51.886;5.436;2024-01-16T15:03:55;8.37;;;3.00;;
48845;SDS011;34665;51.886;5.436;2024-01-16T15:06:21;6.63;;;3.00;;
48845;SDS011;34665;51.886;5.436;2024-01-16T15:08:46;12.37;;;3.77;;